sensor_id;sensor_type;location;lat;lon;timestamp;pressure;altitude;pressure_sealevel;temperature;humidity
49104;BME280;34915;52.926;11.116;2023-01-29T00:01:27;102676.63;;;1.50;100.00
49104;BME280;34915;52.926;11.116;2023-01-29T00:03:53;102674.88;;;1.46;100.00
49104;BME280;34915;52.926;11.116;2023-01-29T00:06:19;102661.84;;;1.47;100.00
49104;BME280;34915;52.926;11.116;2023-01-29T00:08:44;102662.69;;;1.48;100.00
49104;BME280;34915;52.926;11.116;2023-01-29T00:11:11;102671.41;;;1.53;100.00
49104;BME280;34915;52.926;11.116;2023-01-29T00:13:37;102669.66;;;1.52;100.00
49104;BME280;34915;52.926;11.116;2023-01-29T00:16:03;102660.97;;;1.47;100.00
49104;BME280;34915;52.926;11.116;2023-01-29T00:18:29;102663.56;;;1.51;100.00
49104;BME280;34915;52.926;11.116;2023-01-29T00:20:55;102666.19;;;1.47;100.00
49104;BME280;34915;52.926;11.116;2023-01-29T00:23:21;102664.38;;;1.61;100.00
49104;BME280;34915;52.926;11.116;2023-01-29T00:25:46;102662.69;;;1.57;100.00
49104;BME280;34915;52.926;11.116;2023-01-29T00:28:12;102671.34;;;1.65;100.00
49104;BME280;34915;52.926;11.116;2023-01-29T00:30:38;102664.38;;;1.64;100.00
49104;BME280;34915;52.926;11.116;2023-01-29T00:33:04;102667.91;;;1.57;100.00
49104;BME280;34915;52.926;11.116;2023-01-29T00:35:31;102660.91;;;1.62;100.00
49104;BME280;34915;52.926;11.116;2023-01-29T00:37:57;102657.41;;;1.66;100.00
49104;BME280;34915;52.926;11.116;2023-01-29T00:40:23;102660.91;;;1.59;100.00
49104;BME280;34915;52.926;11.116;2023-01-29T00:42:49;102662.66;;;1.54;100.00
49104;BME280;34915;52.926;11.116;2023-01-29T00:45:33;102654.84;;;1.49;100.00
49104;BME280;34915;52.926;11.116;2023-01-29T00:48:02;102653.97;;;1.55;100.00
49104;BME280;34915;52.926;11.116;2023-01-29T00:50:28;102650.53;;;1.47;100.00
49104;BME280;34915;52.926;11.116;2023-01-29T00:52:54;102659.16;;;1.64;100.00
49104;BME280;34915;52.926;11.116;2023-01-29T00:55:20;102667.84;;;1.72;100.00
49104;BME280;34915;52.926;11.116;2023-01-29T00:57:46;102680.06;;;1.58;100.00
49104;BME280;34915;52.926;11.116;2023-01-29T01:00:14;102674.84;;;1.58;100.00
49104;BME280;34915;52.926;11.116;2023-01-29T01:02:40;102678.31;;;1.63;100.00
49104;BME280;34915;52.926;11.116;2023-01-29T01:05:25;102674.78;;;1.73;100.00
49104;BME280;34915;52.926;11.116;2023-01-29T01:07:53;102672.19;;;1.65;100.00
49104;BME280;34915;52.926;11.116;2023-01-29T01:10:29;102660.91;;;1.63;100.00
49104;BME280;34915;52.926;11.116;2023-01-29T01:12:58;102650.44;;;1.68;100.00
49104;BME280;34915;52.926;11.116;2023-01-29T01:15:26;102654.81;;;1.64;100.00
49104;BME280;34915;52.926;11.116;2023-01-29T01:17:58;102654.78;;;1.70;100.00
49104;BME280;34915;52.926;11.116;2023-01-29T01:20:25;102650.41;;;1.71;100.00
49104;BME280;34915;52.926;11.116;2023-01-29T01:22:55;102643.44;;;1.70;100.00
49104;BME280;34915;52.926;11.116;2023-01-29T01:25:24;102640.00;;;1.65;100.00
49104;BME280;34915;52.926;11.116;2023-01-29T01:27:52;102638.22;;;1.77;100.00
49104;BME280;34915;52.926;11.116;2023-01-29T01:30:17;102626.91;;;1.71;100.00
49104;BME280;34915;52.926;11.116;2023-01-29T01:32:43;102626.03;;;1.72;100.00
49104;BME280;34915;52.926;11.116;2023-01-29T01:35:09;102631.22;;;1.81;100.00
49104;BME280;34915;52.926;11.116;2023-01-29T01:37:35;102630.34;;;1.76;100.00
49104;BME280;34915;52.926;11.116;2023-01-29T01:40:03;102632.97;;;1.73;100.00
49104;BME280;34915;52.926;11.116;2023-01-29T01:42:30;102631.25;;;1.75;100.00
49104;BME280;34915;52.926;11.116;2023-01-29T01:45:01;102632.13;;;1.71;100.00
49104;BME280;34915;52.926;11.116;2023-01-29T01:47:37;102632.16;;;1.69;100.00
49104;BME280;34915;52.926;11.116;2023-01-29T01:52:40;102636.44;;;1.81;100.00
49104;BME280;34915;52.926;11.116;2023-01-29T01:55:11;102624.25;;;1.80;100.00
49104;BME280;34915;52.926;11.116;2023-01-29T01:57:38;102631.19;;;1.87;100.00
49104;BME280;34915;52.926;11.116;2023-01-29T02:00:09;102625.09;;;1.85;100.00
49104;BME280;34915;52.926;11.116;2023-01-29T02:02:38;102622.50;;;1.85;100.00
49104;BME280;34915;52.926;11.116;2023-01-29T02:05:24;102613.69;;;2.00;100.00
49104;BME280;34915;52.926;11.116;2023-01-29T02:08:12;102612.06;;;1.85;100.00
49104;BME280;34915;52.926;11.116;2023-01-29T02:10:57;102626.00;;;1.81;100.00
49104;BME280;34915;52.926;11.116;2023-01-29T02:13:23;102610.34;;;1.78;100.00
49104;BME280;34915;52.926;11.116;2023-01-29T02:15:49;102613.78;;;1.83;100.00
49104;BME280;34915;52.926;11.116;2023-01-29T02:18:19;102631.13;;;1.95;100.00
49104;BME280;34915;52.926;11.116;2023-01-29T02:21:06;102636.38;;;1.93;100.00
49104;BME280;34915;52.926;11.116;2023-01-29T02:35:10;102625.97;;;1.84;100.00
49104;BME280;34915;52.926;11.116;2023-01-29T02:38:33;102627.75;;;1.82;100.00
49104;BME280;34915;52.926;11.116;2023-01-29T02:41:13;102625.13;;;1.74;100.00
49104;BME280;34915;52.926;11.116;2023-01-29T02:44:01;102608.59;;;1.77;100.00
49104;BME280;34915;52.926;11.116;2023-01-29T02:46:47;102606.81;;;1.85;100.00
49104;BME280;34915;52.926;11.116;2023-01-29T02:52:03;102611.88;;;2.08;100.00
49104;BME280;34915;52.926;11.116;2023-01-29T02:54:44;102609.31;;;2.04;100.00
49104;BME280;34915;52.926;11.116;2023-01-29T02:57:20;102611.84;;;2.14;100.00
49104;BME280;34915;52.926;11.116;2023-01-29T02:59:55;102604.81;;;2.19;100.00
49104;BME280;34915;52.926;11.116;2023-01-29T03:02:36;102604.09;;;2.02;100.00
49104;BME280;34915;52.926;11.116;2023-01-29T03:05:07;102603.22;;;2.03;100.00
49104;BME280;34915;52.926;11.116;2023-01-29T03:07:40;102598.00;;;2.03;100.00
49104;BME280;34915;52.926;11.116;2023-01-29T03:12:50;102590.97;;;2.08;100.00
49104;BME280;34915;52.926;11.116;2023-01-29T03:15:23;102583.13;;;2.10;100.00
49104;BME280;34915;52.926;11.116;2023-01-29T03:17:59;102580.38;;;2.26;100.00
49104;BME280;34915;52.926;11.116;2023-01-29T03:20:31;102585.56;;;2.29;100.00
49104;BME280;34915;52.926;11.116;2023-01-29T03:23:07;102597.81;;;2.27;100.00
49104;BME280;34915;52.926;11.116;2023-01-29T03:25:35;102578.69;;;2.22;100.00
49104;BME280;34915;52.926;11.116;2023-01-29T03:28:22;102575.09;;;2.32;100.00
49104;BME280;34915;52.926;11.116;2023-01-29T03:31:09;102571.75;;;2.18;100.00
49104;BME280;34915;52.926;11.116;2023-01-29T03:34:09;102576.97;;;2.18;100.00
49104;BME280;34915;52.926;11.116;2023-01-29T03:36:53;102561.31;;;2.15;100.00
49104;BME280;34915;52.926;11.116;2023-01-29T03:39:24;102552.66;;;2.04;100.00
49104;BME280;34915;52.926;11.116;2023-01-29T03:41:55;102557.81;;;2.13;100.00
49104;BME280;34915;52.926;11.116;2023-01-29T03:46:56;102550.75;;;2.26;100.00
49104;BME280;34915;52.926;11.116;2023-01-29T03:49:33;102548.19;;;2.23;100.00
49104;BME280;34915;52.926;11.116;2023-01-29T03:52:13;102545.56;;;2.21;100.00
49104;BME280;34915;52.926;11.116;2023-01-29T03:55:02;102543.81;;;2.23;100.00
49104;BME280;34915;52.926;11.116;2023-01-29T04:00:25;102528.06;;;2.29;100.00
49104;BME280;34915;52.926;11.116;2023-01-29T04:03:12;102531.63;;;2.19;100.00
49104;BME280;34915;52.926;11.116;2023-01-29T04:05:44;102531.63;;;2.22;100.00
49104;BME280;34915;52.926;11.116;2023-01-29T04:08:14;102522.88;;;2.26;100.00
49104;BME280;34915;52.926;11.116;2023-01-29T04:10:43;102516.78;;;2.24;100.00
49104;BME280;34915;52.926;11.116;2023-01-29T04:13:12;102516.88;;;2.15;100.00
49104;BME280;34915;52.926;11.116;2023-01-29T04:16:00;102511.56;;;2.24;100.00
49104;BME280;34915;52.926;11.116;2023-01-29T04:18:26;102511.59;;;2.21;100.00
49104;BME280;34915;52.926;11.116;2023-01-29T04:20:52;102508.97;;;2.24;100.00
49104;BME280;34915;52.926;11.116;2023-01-29T04:23:23;102504.59;;;2.25;100.00
49104;BME280;34915;52.926;11.116;2023-01-29T04:28:49;102484.63;;;2.13;100.00
49104;BME280;34915;52.926;11.116;2023-01-29T04:31:19;102502.00;;;2.20;100.00
49104;BME280;34915;52.926;11.116;2023-01-29T04:34:02;102489.81;;;2.19;100.00
49104;BME280;34915;52.926;11.116;2023-01-29T04:39:29;102489.00;;;2.16;100.00
49104;BME280;34915;52.926;11.116;2023-01-29T04:42:13;102482.88;;;2.18;100.00
49104;BME280;34915;52.926;11.116;2023-01-29T04:47:28;102498.63;;;2.12;100.00
49104;BME280;34915;52.926;11.116;2023-01-29T04:50:16;102498.56;;;2.18;100.00
49104;BME280;34915;52.926;11.116;2023-01-29T04:52:49;102501.19;;;2.17;100.00
49104;BME280;34915;52.926;11.116;2023-01-29T04:55:23;102496.88;;;2.11;100.00
49104;BME280;34915;52.926;11.116;2023-01-29T04:57:55;102494.19;;;2.19;100.00
49104;BME280;34915;52.926;11.116;2023-01-29T05:00:30;102494.19;;;2.19;100.00
49104;BME280;34915;52.926;11.116;2023-01-29T05:02:58;102495.00;;;2.25;100.00
49104;BME280;34915;52.926;11.116;2023-01-29T05:05:25;102493.31;;;2.18;100.00
49104;BME280;34915;52.926;11.116;2023-01-29T05:07:51;102499.41;;;2.20;100.00
49104;BME280;34915;52.926;11.116;2023-01-29T05:10:20;102497.66;;;2.21;100.00
49104;BME280;34915;52.926;11.116;2023-01-29T05:12:51;102507.22;;;2.23;100.00
49104;BME280;34915;52.926;11.116;2023-01-29T05:15:23;102503.78;;;2.18;100.00
49104;BME280;34915;52.926;11.116;2023-01-29T05:17:50;102512.44;;;2.23;100.00
49104;BME280;34915;52.926;11.116;2023-01-29T05:20:18;102514.25;;;2.18;100.00
49104;BME280;34915;52.926;11.116;2023-01-29T05:22:45;102515.13;;;2.16;100.00
49104;BME280;34915;52.926;11.116;2023-01-29T05:25:23;102517.59;;;2.29;100.00
49104;BME280;34915;52.926;11.116;2023-01-29T05:27:50;102515.91;;;2.28;100.00
49104;BME280;34915;52.926;11.116;2023-01-29T05:30:34;102510.66;;;2.28;100.00
49104;BME280;34915;52.926;11.116;2023-01-29T05:33:01;102501.88;;;2.34;100.00
49104;BME280;34915;52.926;11.116;2023-01-29T05:35:27;102503.63;;;2.33;100.00
49104;BME280;34915;52.926;11.116;2023-01-29T05:37:54;102509.66;;;2.38;100.00
49104;BME280;34915;52.926;11.116;2023-01-29T05:40:20;102516.72;;;2.30;100.00
49104;BME280;34915;52.926;11.116;2023-01-29T05:42:46;102523.72;;;2.30;100.00
49104;BME280;34915;52.926;11.116;2023-01-29T05:45:12;102526.28;;;2.34;100.00
49104;BME280;34915;52.926;11.116;2023-01-29T05:47:37;102531.56;;;2.31;100.00
49104;BME280;34915;52.926;11.116;2023-01-29T05:50:03;102526.25;;;2.37;100.00
49104;BME280;34915;52.926;11.116;2023-01-29T05:52:30;102517.63;;;2.26;100.00
49104;BME280;34915;52.926;11.116;2023-01-29T05:54:55;102517.59;;;2.29;100.00
49104;BME280;34915;52.926;11.116;2023-01-29T05:57:21;102508.91;;;2.30;100.00
49104;BME280;34915;52.926;11.116;2023-01-29T05:59:46;102511.53;;;2.29;100.00
49104;BME280;34915;52.926;11.116;2023-01-29T06:02:12;102508.84;;;2.36;100.00
49104;BME280;34915;52.926;11.116;2023-01-29T06:04:37;102497.56;;;2.33;100.00
49104;BME280;34915;52.926;11.116;2023-01-29T06:07:03;102505.34;;;2.37;100.00
49104;BME280;34915;52.926;11.116;2023-01-29T06:09:29;102512.31;;;2.35;100.00
49104;BME280;34915;52.926;11.116;2023-01-29T06:11:55;102504.56;;;2.28;100.00
49104;BME280;34915;52.926;11.116;2023-01-29T06:14:20;102513.28;;;2.30;100.00
49104;BME280;34915;52.926;11.116;2023-01-29T06:16:46;102507.25;;;2.20;100.00
49104;BME280;34915;52.926;11.116;2023-01-29T06:19:11;102507.25;;;2.20;100.00
49104;BME280;34915;52.926;11.116;2023-01-29T06:21:37;102506.41;;;2.18;100.00
49104;BME280;34915;52.926;11.116;2023-01-29T06:24:02;102502.91;;;2.21;100.00
49104;BME280;34915;52.926;11.116;2023-01-29T06:26:28;102510.78;;;2.13;100.00
49104;BME280;34915;52.926;11.116;2023-01-29T06:28:54;102521.19;;;2.18;100.00
49104;BME280;34915;52.926;11.116;2023-01-29T06:31:19;102526.47;;;2.13;100.00
49104;BME280;34915;52.926;11.116;2023-01-29T06:33:45;102518.66;;;2.09;100.00
49104;BME280;34915;52.926;11.116;2023-01-29T06:36:10;102502.13;;;2.07;100.00
49104;BME280;34915;52.926;11.116;2023-01-29T06:38:36;102502.09;;;2.11;100.00
49104;BME280;34915;52.926;11.116;2023-01-29T06:41:12;102513.47;;;2.06;100.00
49104;BME280;34915;52.926;11.116;2023-01-29T06:43:38;102484.69;;;2.07;100.00
49104;BME280;34915;52.926;11.116;2023-01-29T06:46:06;102509.09;;;2.09;100.00
49104;BME280;34915;52.926;11.116;2023-01-29T06:48:32;102523.06;;;2.05;100.00
49104;BME280;34915;52.926;11.116;2023-01-29T06:51:06;102517.91;;;1.96;100.00
49104;BME280;34915;52.926;11.116;2023-01-29T06:53:33;102528.28;;;2.04;100.00
49104;BME280;34915;52.926;11.116;2023-01-29T06:56:02;102536.97;;;2.07;100.00
49104;BME280;34915;52.926;11.116;2023-01-29T06:58:27;102542.19;;;2.07;100.00
49104;BME280;34915;52.926;11.116;2023-01-29T07:00:53;102535.19;;;2.12;100.00
49104;BME280;34915;52.926;11.116;2023-01-29T07:03:18;102524.84;;;2.00;100.00
49104;BME280;34915;52.926;11.116;2023-01-29T07:05:51;102523.84;;;2.12;100.00
49104;BME280;34915;52.926;11.116;2023-01-29T07:08:17;102524.81;;;2.03;100.00
49104;BME280;34915;52.926;11.116;2023-01-29T07:10:46;102521.28;;;2.07;100.00
49104;BME280;34915;52.926;11.116;2023-01-29T07:13:11;102523.09;;;1.99;100.00
49104;BME280;34915;52.926;11.116;2023-01-29T07:15:37;102498.66;;;2.06;100.00
49104;BME280;34915;52.926;11.116;2023-01-29T07:18:05;102491.72;;;2.02;100.00
49104;BME280;34915;52.926;11.116;2023-01-29T07:20:39;102486.53;;;1.99;100.00
49104;BME280;34915;52.926;11.116;2023-01-29T07:23:06;102493.53;;;1.94;100.00
49104;BME280;34915;52.926;11.116;2023-01-29T07:25:33;102476.13;;;1.94;100.00
49104;BME280;34915;52.926;11.116;2023-01-29T07:28:00;102472.66;;;1.92;100.00
49104;BME280;34915;52.926;11.116;2023-01-29T07:30:26;102476.19;;;1.88;100.00
49104;BME280;34915;52.926;11.116;2023-01-29T07:32:51;102455.38;;;1.73;100.00
49104;BME280;34915;52.926;11.116;2023-01-29T07:35:17;102457.94;;;1.85;100.00
49104;BME280;34915;52.926;11.116;2023-01-29T07:37:43;102446.56;;;1.86;100.00
49104;BME280;34915;52.926;11.116;2023-01-29T07:40:09;102457.06;;;1.83;100.00
49104;BME280;34915;52.926;11.116;2023-01-29T07:42:37;102458.78;;;1.84;100.00
49104;BME280;34915;52.926;11.116;2023-01-29T07:45:04;102461.38;;;1.88;100.00
49104;BME280;34915;52.926;11.116;2023-01-29T07:47:30;102462.13;;;1.97;100.00
49104;BME280;34915;52.926;11.116;2023-01-29T07:49:55;102461.34;;;1.90;100.00
49104;BME280;34915;52.926;11.116;2023-01-29T07:52:21;102457.06;;;1.80;100.00
49104;BME280;34915;52.926;11.116;2023-01-29T07:54:46;102454.38;;;1.90;100.00
49104;BME280;34915;52.926;11.116;2023-01-29T07:57:12;102458.72;;;1.93;100.00
49104;BME280;34915;52.926;11.116;2023-01-29T07:59:37;102451.69;;;1.97;100.00
49104;BME280;34915;52.926;11.116;2023-01-29T08:02:03;102449.06;;;2.02;100.00
49104;BME280;34915;52.926;11.116;2023-01-29T08:04:28;102430.69;;;2.09;100.00
49104;BME280;34915;52.926;11.116;2023-01-29T08:06:54;102437.66;;;2.07;100.00
49104;BME280;34915;52.926;11.116;2023-01-29T08:09:19;102424.59;;;2.07;100.00
49104;BME280;34915;52.926;11.116;2023-01-29T08:11:45;102423.81;;;1.99;100.00
49104;BME280;34915;52.926;11.116;2023-01-29T08:14:11;102420.22;;;2.12;100.00
49104;BME280;34915;52.926;11.116;2023-01-29T08:16:36;102426.25;;;2.17;100.00
49104;BME280;34915;52.926;11.116;2023-01-29T08:19:02;102427.16;;;2.13;100.00
49104;BME280;34915;52.926;11.116;2023-01-29T08:21:27;102434.03;;;2.23;100.00
49104;BME280;34915;52.926;11.116;2023-01-29T08:23:53;102436.53;;;2.34;100.00
49104;BME280;34915;52.926;11.116;2023-01-29T08:26:18;102435.69;;;2.30;100.00
49104;BME280;34915;52.926;11.116;2023-01-29T08:28:44;102435.63;;;2.36;100.00
49104;BME280;34915;52.926;11.116;2023-01-29T08:31:16;102431.28;;;2.34;100.00
49104;BME280;34915;52.926;11.116;2023-01-29T08:33:41;102419.97;;;2.33;100.00
49104;BME280;34915;52.926;11.116;2023-01-29T08:36:08;102411.22;;;2.37;100.00
49104;BME280;34915;52.926;11.116;2023-01-29T08:38:34;102418.09;;;2.47;100.00
49104;BME280;34915;52.926;11.116;2023-01-29T08:40:59;102409.44;;;2.39;100.00
49104;BME280;34915;52.926;11.116;2023-01-29T08:43:25;102410.28;;;2.41;100.00
49104;BME280;34915;52.926;11.116;2023-01-29T08:45:50;102404.16;;;2.45;100.00
49104;BME280;34915;52.926;11.116;2023-01-29T08:48:16;102400.47;;;2.61;100.00
49104;BME280;34915;52.926;11.116;2023-01-29T08:50:41;102399.59;;;2.62;100.00
49104;BME280;34915;52.926;11.116;2023-01-29T08:53:08;102389.97;;;2.64;100.00
49104;BME280;34915;52.926;11.116;2023-01-29T08:55:38;102382.81;;;2.78;99.25
49104;BME280;34915;52.926;11.116;2023-01-29T08:58:05;102385.59;;;2.64;99.71
49104;BME280;34915;52.926;11.116;2023-01-29T09:00:32;102391.66;;;2.68;99.59
49104;BME280;34915;52.926;11.116;2023-01-29T09:02:57;102393.38;;;2.72;99.05
49104;BME280;34915;52.926;11.116;2023-01-29T09:05:24;102400.19;;;2.82;99.22
49104;BME280;34915;52.926;11.116;2023-01-29T09:07:50;102418.47;;;2.85;98.20
49104;BME280;34915;52.926;11.116;2023-01-29T09:10:16;102419.38;;;2.84;98.29
49104;BME280;34915;52.926;11.116;2023-01-29T09:12:41;102415.81;;;2.86;98.05
49104;BME280;34915;52.926;11.116;2023-01-29T09:15:07;102419.31;;;2.87;98.65
49104;BME280;34915;52.926;11.116;2023-01-29T09:17:33;102421.13;;;2.82;99.22
49104;BME280;34915;52.926;11.116;2023-01-29T09:19:59;102403.59;;;2.90;98.46
49104;BME280;34915;52.926;11.116;2023-01-29T09:22:24;102409.59;;;2.94;98.17
49104;BME280;34915;52.926;11.116;2023-01-29T09:24:50;102408.69;;;2.98;98.32
49104;BME280;34915;52.926;11.116;2023-01-29T09:27:15;102419.06;;;3.04;97.84
49104;BME280;34915;52.926;11.116;2023-01-29T09:29:43;102412.03;;;3.09;96.70
49104;BME280;34915;52.926;11.116;2023-01-29T09:32:09;102411.19;;;3.07;96.93
49104;BME280;34915;52.926;11.116;2023-01-29T09:34:34;102394.47;;;3.17;96.38
49104;BME280;34915;52.926;11.116;2023-01-29T09:37:01;102394.41;;;3.20;95.69
49104;BME280;34915;52.926;11.116;2023-01-29T09:39:26;102389.25;;;3.16;96.23
49104;BME280;34915;52.926;11.116;2023-01-29T09:47:10;102407.47;;;3.23;95.43
49104;BME280;34915;52.926;11.116;2023-01-29T09:49:45;102403.84;;;3.32;96.21
49104;BME280;34915;52.926;11.116;2023-01-29T09:52:59;102406.44;;;3.33;96.14
49104;BME280;34915;52.926;11.116;2023-01-29T09:55:28;102399.47;;;3.32;96.00
49104;BME280;34915;52.926;11.116;2023-01-29T09:58:13;102401.16;;;3.36;96.14
49104;BME280;34915;52.926;11.116;2023-01-29T10:00:53;102390.59;;;3.42;96.57
49104;BME280;34915;52.926;11.116;2023-01-29T10:09:13;102384.38;;;3.49;96.21
49104;BME280;34915;52.926;11.116;2023-01-29T10:18:02;102366.91;;;3.48;96.95
49104;BME280;34915;52.926;11.116;2023-01-29T10:25:50;102346.75;;;3.53;95.93
49104;BME280;34915;52.926;11.116;2023-01-29T10:30:48;102346.66;;;3.59;98.01
49104;BME280;34915;52.926;11.116;2023-01-29T10:33:19;102337.78;;;3.66;97.24
49104;BME280;34915;52.926;11.116;2023-01-29T10:35:51;102326.59;;;3.58;97.07
49104;BME280;34915;52.926;11.116;2023-01-29T10:41:16;102324.19;;;3.46;98.71
49104;BME280;34915;52.926;11.116;2023-01-29T11:02:32;102308.28;;;3.55;100.00
49104;BME280;34915;52.926;11.116;2023-01-29T11:04:58;102301.25;;;3.57;100.00
49104;BME280;34915;52.926;11.116;2023-01-29T11:07:23;102299.41;;;3.65;100.00
49104;BME280;34915;52.926;11.116;2023-01-29T11:09:51;102294.38;;;3.53;100.00
49104;BME280;34915;52.926;11.116;2023-01-29T11:12:28;102290.84;;;3.54;100.00
49104;BME280;34915;52.926;11.116;2023-01-29T11:15:02;102285.44;;;3.63;100.00
49104;BME280;34915;52.926;11.116;2023-01-29T11:17:29;102281.94;;;3.64;100.00
49104;BME280;34915;52.926;11.116;2023-01-29T11:19:55;102282.00;;;3.61;100.00
49104;BME280;34915;52.926;11.116;2023-01-29T11:22:25;102292.41;;;3.64;100.00
49104;BME280;34915;52.926;11.116;2023-01-29T11:25:17;102290.66;;;3.63;100.00
49104;BME280;34915;52.926;11.116;2023-01-29T11:27:48;102271.34;;;3.70;100.00
49104;BME280;34915;52.926;11.116;2023-01-29T11:30:36;102273.84;;;3.76;100.00
49104;BME280;34915;52.926;11.116;2023-01-29T11:33:07;102271.09;;;3.82;100.00
49104;BME280;34915;52.926;11.116;2023-01-29T11:35:34;102269.41;;;3.81;100.00
49104;BME280;34915;52.926;11.116;2023-01-29T11:40:39;102260.56;;;3.85;100.00
49104;BME280;34915;52.926;11.116;2023-01-29T11:43:31;102269.22;;;3.90;100.00
49104;BME280;34915;52.926;11.116;2023-01-29T11:46:11;102253.59;;;3.85;100.00
49104;BME280;34915;52.926;11.116;2023-01-29T11:48:44;102253.63;;;3.84;99.50
49104;BME280;34915;52.926;11.116;2023-01-29T11:51:20;102253.66;;;3.81;99.71
49104;BME280;34915;52.926;11.116;2023-01-29T11:53:53;102247.63;;;3.76;100.00
49104;BME280;34915;52.926;11.116;2023-01-29T11:56:26;102248.44;;;3.81;100.00
49104;BME280;34915;52.926;11.116;2023-01-29T11:58:54;102250.31;;;3.73;100.00
49104;BME280;34915;52.926;11.116;2023-01-29T12:01:38;102242.25;;;3.83;100.00
49104;BME280;34915;52.926;11.116;2023-01-29T12:04:20;102244.91;;;3.82;99.81
49104;BME280;34915;52.926;11.116;2023-01-29T12:06:46;102242.34;;;3.79;99.43
49104;BME280;34915;52.926;11.116;2023-01-29T12:09:21;102245.03;;;3.76;98.92
49104;BME280;34915;52.926;11.116;2023-01-29T12:11:48;102232.84;;;3.75;98.83
49104;BME280;34915;52.926;11.116;2023-01-29T12:14:31;102237.94;;;3.81;98.63
49104;BME280;34915;52.926;11.116;2023-01-29T12:19:37;102229.16;;;3.82;98.53
49104;BME280;34915;52.926;11.116;2023-01-29T12:22:20;102224.66;;;3.90;99.57
49104;BME280;34915;52.926;11.116;2023-01-29T12:35:47;102211.50;;;3.92;99.42
49104;BME280;34915;52.926;11.116;2023-01-29T12:38:19;102203.75;;;3.87;99.09
49104;BME280;34915;52.926;11.116;2023-01-29T12:41:10;102201.13;;;3.87;100.00
49104;BME280;34915;52.926;11.116;2023-01-29T12:43:39;102194.09;;;3.89;100.00
49104;BME280;34915;52.926;11.116;2023-01-29T12:46:27;102196.66;;;3.91;100.00
49104;BME280;34915;52.926;11.116;2023-01-29T12:48:55;102188.84;;;3.89;100.00
49104;BME280;34915;52.926;11.116;2023-01-29T12:51:30;102188.59;;;4.00;100.00
49104;BME280;34915;52.926;11.116;2023-01-29T12:56:38;102171.53;;;3.82;100.00
49104;BME280;34915;52.926;11.116;2023-01-29T12:59:14;102160.97;;;3.85;100.00
49104;BME280;34915;52.926;11.116;2023-01-29T13:01:49;102162.44;;;3.97;100.00
49104;BME280;34915;52.926;11.116;2023-01-29T13:04:29;102159.13;;;3.90;100.00
49104;BME280;34915;52.926;11.116;2023-01-29T13:07:09;102148.66;;;3.90;100.00
49104;BME280;34915;52.926;11.116;2023-01-29T13:09:42;102149.38;;;3.96;100.00
49104;BME280;34915;52.926;11.116;2023-01-29T13:12:15;102137.91;;;4.01;100.00
49104;BME280;34915;52.926;11.116;2023-01-29T13:14:46;102144.75;;;4.08;100.00
49104;BME280;34915;52.926;11.116;2023-01-29T13:17:27;102137.81;;;4.04;100.00
49104;BME280;34915;52.926;11.116;2023-01-29T13:20:03;102115.06;;;4.06;100.00
49104;BME280;34915;52.926;11.116;2023-01-29T13:22:35;102127.00;;;4.19;100.00
49104;BME280;34915;52.926;11.116;2023-01-29T13:25:03;102114.56;;;4.27;100.00
49104;BME280;34915;52.926;11.116;2023-01-29T13:27:30;102105.88;;;4.25;100.00
49104;BME280;34915;52.926;11.116;2023-01-29T13:29:58;102109.19;;;4.33;99.57
49104;BME280;34915;52.926;11.116;2023-01-29T13:32:26;102102.34;;;4.26;100.00
49104;BME280;34915;52.926;11.116;2023-01-29T13:35:18;102100.88;;;4.15;100.00
49104;BME280;34915;52.926;11.116;2023-01-29T13:37:51;102100.97;;;4.10;98.40
49104;BME280;34915;52.926;11.116;2023-01-29T13:40:21;102096.78;;;4.03;98.44
49104;BME280;34915;52.926;11.116;2023-01-29T13:42:50;102094.06;;;4.06;99.52
49104;BME280;34915;52.926;11.116;2023-01-29T13:45:19;102086.22;;;4.06;99.61
49104;BME280;34915;52.926;11.116;2023-01-29T13:47:46;102080.09;;;4.07;100.00
49104;BME280;34915;52.926;11.116;2023-01-29T13:50:28;102085.19;;;4.13;99.37
49104;BME280;34915;52.926;11.116;2023-01-29T13:52:57;102089.59;;;4.11;98.53
49104;BME280;34915;52.926;11.116;2023-01-29T13:55:30;102086.22;;;4.06;99.66
49104;BME280;34915;52.926;11.116;2023-01-29T13:58:01;102085.19;;;4.13;99.43
49104;BME280;34915;52.926;11.116;2023-01-29T14:06:05;102072.16;;;4.10;99.23
49104;BME280;34915;52.926;11.116;2023-01-29T14:13:42;102070.66;;;3.99;100.00
49104;BME280;34915;52.926;11.116;2023-01-29T14:23:47;102066.63;;;3.85;100.00
49104;BME280;34915;52.926;11.116;2023-01-29T14:29:17;102056.94;;;3.90;100.00
49104;BME280;34915;52.926;11.116;2023-01-29T14:34:35;102052.63;;;3.86;100.00
49104;BME280;34915;52.926;11.116;2023-01-29T14:39:44;102042.44;;;3.74;100.00
49104;BME280;34915;52.926;11.116;2023-01-29T14:42:22;102040.72;;;3.73;100.00
49104;BME280;34915;52.926;11.116;2023-01-29T14:45:45;102032.03;;;3.71;100.00
49104;BME280;34915;52.926;11.116;2023-01-29T14:50:42;102022.75;;;3.56;100.00
49104;BME280;34915;52.926;11.116;2023-01-29T14:55:47;102023.53;;;3.60;100.00
49104;BME280;34915;52.926;11.116;2023-01-29T14:58:20;102019.31;;;3.54;100.00
49104;BME280;34915;52.926;11.116;2023-01-29T15:00:50;102004.31;;;3.61;100.00
49104;BME280;34915;52.926;11.116;2023-01-29T15:03:21;102007.97;;;3.54;100.00
49104;BME280;34915;52.926;11.116;2023-01-29T15:05:53;102006.28;;;3.50;100.00
49104;BME280;34915;52.926;11.116;2023-01-29T15:08:43;102008.81;;;3.56;100.00
49104;BME280;34915;52.926;11.116;2023-01-29T15:11:17;102000.88;;;3.59;100.00
49104;BME280;34915;52.926;11.116;2023-01-29T15:16:38;102004.66;;;3.46;100.00